sensor_id;sensor_type;location;lat;lon;timestamp;P1;durP1;ratioP1;P2;durP2;ratioP2
16963;SDS011;8598;50.508;10.436;2023-01-26T00:00:50;32.37;;;13.37;;
16963;SDS011;8598;50.508;10.436;2023-01-26T00:03:18;34.83;;;13.67;;
16963;SDS011;8598;50.508;10.436;2023-01-26T00:05:44;27.67;;;12.87;;
16963;SDS011;8598;50.508;10.436;2023-01-26T00:08:12;29.30;;;11.73;;
16963;SDS011;8598;50.508;10.436;2023-01-26T00:10:40;31.10;;;12.30;;
16963;SDS011;8598;50.508;10.436;2023-01-26T00:13:14;24.63;;;12.37;;
16963;SDS011;8598;50.508;10.436;2023-01-26T00:15:41;28.63;;;12.27;;
16963;SDS011;8598;50.508;10.436;2023-01-26T00:18:08;23.87;;;11.57;;
16963;SDS011;8598;50.508;10.436;2023-01-26T00:20:35;20.03;;;10.30;;
16963;SDS011;8598;50.508;10.436;2023-01-26T00:23:01;20.50;;;10.37;;
16963;SDS011;8598;50.508;10.436;2023-01-26T00:25:29;24.30;;;10.87;;
16963;SDS011;8598;50.508;10.436;2023-01-26T00:27:56;20.90;;;9.80;;
16963;SDS011;8598;50.508;10.436;2023-01-26T00:30:22;20.90;;;10.70;;
16963;SDS011;8598;50.508;10.436;2023-01-26T00:32:49;24.90;;;11.03;;
16963;SDS011;8598;50.508;10.436;2023-01-26T00:35:16;25.13;;;11.00;;
16963;SDS011;8598;50.508;10.436;2023-01-26T00:37:42;30.57;;;12.60;;
16963;SDS011;8598;50.508;10.436;2023-01-26T00:40:10;31.47;;;12.97;;
16963;SDS011;8598;50.508;10.436;2023-01-26T00:42:38;33.90;;;13.23;;
16963;SDS011;8598;50.508;10.436;2023-01-26T00:45:05;24.87;;;12.27;;
16963;SDS011;8598;50.508;10.436;2023-01-26T00:47:32;27.00;;;11.67;;
16963;SDS011;8598;50.508;10.436;2023-01-26T00:49:58;26.43;;;12.10;;
16963;SDS011;8598;50.508;10.436;2023-01-26T00:52:25;28.53;;;11.10;;
16963;SDS011;8598;50.508;10.436;2023-01-26T00:54:52;24.13;;;11.17;;
16963;SDS011;8598;50.508;10.436;2023-01-26T00:57:18;23.47;;;11.30;;
16963;SDS011;8598;50.508;10.436;2023-01-26T00:59:46;29.47;;;11.10;;
16963;SDS011;8598;50.508;10.436;2023-01-26T01:02:13;18.20;;;10.50;;
16963;SDS011;8598;50.508;10.436;2023-01-26T01:04:39;20.93;;;10.07;;
16963;SDS011;8598;50.508;10.436;2023-01-26T01:07:06;20.83;;;9.20;;
16963;SDS011;8598;50.508;10.436;2023-01-26T01:09:33;20.80;;;9.67;;
16963;SDS011;8598;50.508;10.436;2023-01-26T01:11:59;22.33;;;11.50;;
16963;SDS011;8598;50.508;10.436;2023-01-26T01:14:26;22.73;;;10.17;;
16963;SDS011;8598;50.508;10.436;2023-01-26T01:16:54;22.03;;;10.50;;
16963;SDS011;8598;50.508;10.436;2023-01-26T01:19:20;21.07;;;10.03;;
16963;SDS011;8598;50.508;10.436;2023-01-26T01:21:47;22.67;;;10.53;;
16963;SDS011;8598;50.508;10.436;2023-01-26T01:24:13;24.27;;;10.63;;
16963;SDS011;8598;50.508;10.436;2023-01-26T01:26:40;24.73;;;10.03;;
16963;SDS011;8598;50.508;10.436;2023-01-26T01:29:08;22.87;;;11.23;;
16963;SDS011;8598;50.508;10.436;2023-01-26T01:31:38;19.40;;;10.47;;
16963;SDS011;8598;50.508;10.436;2023-01-26T01:34:06;19.30;;;10.77;;
16963;SDS011;8598;50.508;10.436;2023-01-26T01:36:33;22.33;;;10.77;;
16963;SDS011;8598;50.508;10.436;2023-01-26T01:38:59;26.60;;;10.57;;
16963;SDS011;8598;50.508;10.436;2023-01-26T01:41:26;24.83;;;10.70;;
16963;SDS011;8598;50.508;10.436;2023-01-26T01:46:38;23.27;;;11.27;;
16963;SDS011;8598;50.508;10.436;2023-01-26T01:49:12;27.30;;;11.33;;
16963;SDS011;8598;50.508;10.436;2023-01-26T01:51:42;24.07;;;9.63;;
16963;SDS011;8598;50.508;10.436;2023-01-26T01:54:12;26.10;;;11.27;;
16963;SDS011;8598;50.508;10.436;2023-01-26T01:56:44;28.60;;;12.50;;
16963;SDS011;8598;50.508;10.436;2023-01-26T01:59:15;26.17;;;12.23;;
16963;SDS011;8598;50.508;10.436;2023-01-26T02:01:45;24.37;;;9.93;;
16963;SDS011;8598;50.508;10.436;2023-01-26T02:04:13;24.63;;;12.23;;
16963;SDS011;8598;50.508;10.436;2023-01-26T02:06:41;25.60;;;11.57;;
16963;SDS011;8598;50.508;10.436;2023-01-26T02:09:12;22.97;;;10.10;;
16963;SDS011;8598;50.508;10.436;2023-01-26T02:11:54;25.30;;;11.00;;
16963;SDS011;8598;50.508;10.436;2023-01-26T02:14:23;20.63;;;10.20;;
16963;SDS011;8598;50.508;10.436;2023-01-26T02:16:51;24.03;;;10.43;;
16963;SDS011;8598;50.508;10.436;2023-01-26T02:19:21;24.07;;;10.60;;
16963;SDS011;8598;50.508;10.436;2023-01-26T02:21:55;22.50;;;10.33;;
16963;SDS011;8598;50.508;10.436;2023-01-26T02:24:28;25.87;;;11.27;;
16963;SDS011;8598;50.508;10.436;2023-01-26T02:27:01;23.97;;;10.60;;
16963;SDS011;8598;50.508;10.436;2023-01-26T02:29:27;22.30;;;9.80;;
16963;SDS011;8598;50.508;10.436;2023-01-26T02:31:54;24.47;;;11.60;;
16963;SDS011;8598;50.508;10.436;2023-01-26T02:34:21;19.93;;;10.37;;
16963;SDS011;8598;50.508;10.436;2023-01-26T02:36:55;30.30;;;11.80;;
16963;SDS011;8598;50.508;10.436;2023-01-26T02:39:24;28.27;;;12.50;;
16963;SDS011;8598;50.508;10.436;2023-01-26T02:42:01;29.20;;;10.87;;
16963;SDS011;8598;50.508;10.436;2023-01-26T02:44:45;20.17;;;9.97;;
16963;SDS011;8598;50.508;10.436;2023-01-26T02:47:12;28.27;;;11.53;;
16963;SDS011;8598;50.508;10.436;2023-01-26T02:49:41;24.50;;;11.03;;
16963;SDS011;8598;50.508;10.436;2023-01-26T02:52:14;21.80;;;10.27;;
16963;SDS011;8598;50.508;10.436;2023-01-26T02:54:41;27.27;;;10.80;;
16963;SDS011;8598;50.508;10.436;2023-01-26T02:57:27;19.60;;;10.20;;
16963;SDS011;8598;50.508;10.436;2023-01-26T02:59:54;26.60;;;10.77;;
16963;SDS011;8598;50.508;10.436;2023-01-26T03:02:21;29.00;;;10.60;;
16963;SDS011;8598;50.508;10.436;2023-01-26T03:04:47;26.53;;;9.50;;
16963;SDS011;8598;50.508;10.436;2023-01-26T03:07:14;24.73;;;9.40;;
16963;SDS011;8598;50.508;10.436;2023-01-26T03:09:41;29.13;;;11.70;;
16963;SDS011;8598;50.508;10.436;2023-01-26T03:12:07;26.73;;;10.47;;
16963;SDS011;8598;50.508;10.436;2023-01-26T03:14:35;26.30;;;11.43;;
16963;SDS011;8598;50.508;10.436;2023-01-26T03:17:02;24.03;;;10.50;;
16963;SDS011;8598;50.508;10.436;2023-01-26T03:19:29;27.33;;;9.57;;
16963;SDS011;8598;50.508;10.436;2023-01-26T03:22:13;16.87;;;8.97;;
16963;SDS011;8598;50.508;10.436;2023-01-26T03:24:57;26.40;;;10.37;;
16963;SDS011;8598;50.508;10.436;2023-01-26T03:27:42;24.33;;;10.20;;
16963;SDS011;8598;50.508;10.436;2023-01-26T03:30:12;23.13;;;10.53;;
16963;SDS011;8598;50.508;10.436;2023-01-26T03:32:40;23.97;;;9.50;;
16963;SDS011;8598;50.508;10.436;2023-01-26T03:35:07;21.57;;;9.57;;
16963;SDS011;8598;50.508;10.436;2023-01-26T03:37:38;20.70;;;10.27;;
16963;SDS011;8598;50.508;10.436;2023-01-26T03:40:08;24.63;;;10.20;;
16963;SDS011;8598;50.508;10.436;2023-01-26T03:42:54;15.47;;;7.40;;
16963;SDS011;8598;50.508;10.436;2023-01-26T03:45:39;26.60;;;9.30;;
16963;SDS011;8598;50.508;10.436;2023-01-26T03:48:24;18.63;;;7.67;;
16963;SDS011;8598;50.508;10.436;2023-01-26T03:51:08;15.40;;;7.23;;
16963;SDS011;8598;50.508;10.436;2023-01-26T03:53:52;14.37;;;7.47;;
16963;SDS011;8598;50.508;10.436;2023-01-26T03:56:37;15.33;;;7.70;;
16963;SDS011;8598;50.508;10.436;2023-01-26T03:59:07;15.20;;;7.57;;
16963;SDS011;8598;50.508;10.436;2023-01-26T04:01:36;17.43;;;7.07;;
16963;SDS011;8598;50.508;10.436;2023-01-26T04:04:04;17.00;;;7.93;;
16963;SDS011;8598;50.508;10.436;2023-01-26T04:06:49;16.53;;;7.83;;
16963;SDS011;8598;50.508;10.436;2023-01-26T04:09:34;13.27;;;6.87;;
16963;SDS011;8598;50.508;10.436;2023-01-26T04:12:03;14.37;;;7.07;;
16963;SDS011;8598;50.508;10.436;2023-01-26T04:14:30;13.37;;;6.07;;
16963;SDS011;8598;50.508;10.436;2023-01-26T04:17:16;11.93;;;5.83;;
16963;SDS011;8598;50.508;10.436;2023-01-26T04:20:01;14.10;;;6.73;;
16963;SDS011;8598;50.508;10.436;2023-01-26T04:22:46;13.30;;;6.37;;
16963;SDS011;8598;50.508;10.436;2023-01-26T04:25:13;13.53;;;6.63;;
16963;SDS011;8598;50.508;10.436;2023-01-26T04:27:41;10.97;;;6.47;;
16963;SDS011;8598;50.508;10.436;2023-01-26T04:30:10;12.53;;;6.23;;
16963;SDS011;8598;50.508;10.436;2023-01-26T04:32:39;16.00;;;7.40;;
16963;SDS011;8598;50.508;10.436;2023-01-26T04:35:07;15.70;;;6.67;;
16963;SDS011;8598;50.508;10.436;2023-01-26T04:37:35;17.67;;;7.23;;
16963;SDS011;8598;50.508;10.436;2023-01-26T04:40:01;15.30;;;6.60;;
16963;SDS011;8598;50.508;10.436;2023-01-26T04:42:29;11.80;;;6.77;;
16963;SDS011;8598;50.508;10.436;2023-01-26T04:44:55;15.83;;;7.20;;
16963;SDS011;8598;50.508;10.436;2023-01-26T04:47:22;15.70;;;6.77;;
16963;SDS011;8598;50.508;10.436;2023-01-26T04:49:50;10.77;;;6.37;;
16963;SDS011;8598;50.508;10.436;2023-01-26T04:52:17;11.83;;;6.57;;
16963;SDS011;8598;50.508;10.436;2023-01-26T04:54:43;13.93;;;6.97;;
16963;SDS011;8598;50.508;10.436;2023-01-26T04:57:10;18.70;;;8.33;;
16963;SDS011;8598;50.508;10.436;2023-01-26T04:59:36;12.40;;;6.97;;
16963;SDS011;8598;50.508;10.436;2023-01-26T05:02:03;12.80;;;6.57;;
16963;SDS011;8598;50.508;10.436;2023-01-26T05:04:30;15.67;;;7.50;;
16963;SDS011;8598;50.508;10.436;2023-01-26T05:06:58;12.00;;;6.50;;
16963;SDS011;8598;50.508;10.436;2023-01-26T05:09:24;14.77;;;7.03;;
16963;SDS011;8598;50.508;10.436;2023-01-26T05:11:51;12.00;;;5.80;;
16963;SDS011;8598;50.508;10.436;2023-01-26T05:14:18;11.90;;;6.80;;
16963;SDS011;8598;50.508;10.436;2023-01-26T05:16:44;11.30;;;5.90;;
16963;SDS011;8598;50.508;10.436;2023-01-26T05:19:11;15.47;;;6.97;;
16963;SDS011;8598;50.508;10.436;2023-01-26T05:21:37;14.77;;;6.10;;
16963;SDS011;8598;50.508;10.436;2023-01-26T05:24:06;10.63;;;5.37;;
16963;SDS011;8598;50.508;10.436;2023-01-26T05:26:33;10.63;;;5.70;;
16963;SDS011;8598;50.508;10.436;2023-01-26T05:28:59;14.37;;;5.40;;
16963;SDS011;8598;50.508;10.436;2023-01-26T05:31:26;10.60;;;6.27;;
16963;SDS011;8598;50.508;10.436;2023-01-26T05:33:53;11.23;;;6.07;;
16963;SDS011;8598;50.508;10.436;2023-01-26T05:36:19;13.77;;;5.83;;
16963;SDS011;8598;50.508;10.436;2023-01-26T05:38:46;13.23;;;5.73;;
16963;SDS011;8598;50.508;10.436;2023-01-26T05:41:14;13.93;;;6.13;;
16963;SDS011;8598;50.508;10.436;2023-01-26T05:43:40;11.33;;;6.33;;
16963;SDS011;8598;50.508;10.436;2023-01-26T05:46:07;14.93;;;7.33;;
16963;SDS011;8598;50.508;10.436;2023-01-26T05:48:34;13.00;;;7.10;;
16963;SDS011;8598;50.508;10.436;2023-01-26T05:51:00;13.27;;;7.43;;
16963;SDS011;8598;50.508;10.436;2023-01-26T05:53:27;13.60;;;7.17;;
16963;SDS011;8598;50.508;10.436;2023-01-26T05:55:53;14.57;;;7.90;;
16963;SDS011;8598;50.508;10.436;2023-01-26T05:58:21;12.67;;;6.77;;
16963;SDS011;8598;50.508;10.436;2023-01-26T06:00:48;14.17;;;7.37;;
16963;SDS011;8598;50.508;10.436;2023-01-26T06:03:14;15.93;;;8.60;;
16963;SDS011;8598;50.508;10.436;2023-01-26T06:05:41;14.93;;;7.93;;
16963;SDS011;8598;50.508;10.436;2023-01-26T06:08:08;16.57;;;8.70;;
16963;SDS011;8598;50.508;10.436;2023-01-26T06:10:34;16.83;;;8.67;;
16963;SDS011;8598;50.508;10.436;2023-01-26T06:13:01;15.50;;;7.93;;
16963;SDS011;8598;50.508;10.436;2023-01-26T06:15:29;21.20;;;9.30;;
16963;SDS011;8598;50.508;10.436;2023-01-26T06:17:55;17.90;;;8.47;;
16963;SDS011;8598;50.508;10.436;2023-01-26T06:20:22;14.30;;;7.43;;
16963;SDS011;8598;50.508;10.436;2023-01-26T06:22:48;15.77;;;7.87;;
16963;SDS011;8598;50.508;10.436;2023-01-26T06:25:15;16.50;;;7.90;;
16963;SDS011;8598;50.508;10.436;2023-01-26T06:27:42;17.23;;;7.43;;
16963;SDS011;8598;50.508;10.436;2023-01-26T06:30:09;11.00;;;5.83;;
16963;SDS011;8598;50.508;10.436;2023-01-26T06:32:37;13.63;;;6.53;;
16963;SDS011;8598;50.508;10.436;2023-01-26T06:35:04;10.33;;;6.53;;
16963;SDS011;8598;50.508;10.436;2023-01-26T06:37:32;11.50;;;6.40;;
16963;SDS011;8598;50.508;10.436;2023-01-26T06:39:59;13.03;;;6.77;;
16963;SDS011;8598;50.508;10.436;2023-01-26T06:42:25;10.87;;;6.80;;
16963;SDS011;8598;50.508;10.436;2023-01-26T06:44:52;13.57;;;6.67;;
16963;SDS011;8598;50.508;10.436;2023-01-26T06:47:19;12.03;;;7.03;;
16963;SDS011;8598;50.508;10.436;2023-01-26T06:49:47;11.17;;;6.57;;
16963;SDS011;8598;50.508;10.436;2023-01-26T06:52:24;12.73;;;7.00;;
16963;SDS011;8598;50.508;10.436;2023-01-26T06:54:55;15.50;;;7.47;;
16963;SDS011;8598;50.508;10.436;2023-01-26T06:57:23;14.87;;;7.63;;
16963;SDS011;8598;50.508;10.436;2023-01-26T06:59:50;19.97;;;9.57;;
16963;SDS011;8598;50.508;10.436;2023-01-26T07:02:18;13.50;;;7.87;;
16963;SDS011;8598;50.508;10.436;2023-01-26T07:04:47;14.37;;;7.63;;
16963;SDS011;8598;50.508;10.436;2023-01-26T07:07:15;15.70;;;7.73;;
16963;SDS011;8598;50.508;10.436;2023-01-26T07:09:41;16.73;;;8.03;;
16963;SDS011;8598;50.508;10.436;2023-01-26T07:12:08;13.33;;;7.43;;
16963;SDS011;8598;50.508;10.436;2023-01-26T07:14:34;12.43;;;6.60;;
16963;SDS011;8598;50.508;10.436;2023-01-26T07:17:01;17.37;;;8.10;;
16963;SDS011;8598;50.508;10.436;2023-01-26T07:19:28;16.30;;;6.80;;
16963;SDS011;8598;50.508;10.436;2023-01-26T07:21:58;11.73;;;6.80;;
16963;SDS011;8598;50.508;10.436;2023-01-26T07:24:25;13.23;;;7.10;;
16963;SDS011;8598;50.508;10.436;2023-01-26T07:26:52;13.77;;;7.33;;
16963;SDS011;8598;50.508;10.436;2023-01-26T07:29:18;13.27;;;7.53;;
16963;SDS011;8598;50.508;10.436;2023-01-26T07:31:45;15.07;;;7.67;;
16963;SDS011;8598;50.508;10.436;2023-01-26T07:34:12;16.10;;;8.20;;
16963;SDS011;8598;50.508;10.436;2023-01-26T07:36:39;18.23;;;7.17;;
16963;SDS011;8598;50.508;10.436;2023-01-26T07:39:07;12.83;;;6.97;;
16963;SDS011;8598;50.508;10.436;2023-01-26T07:41:33;17.53;;;7.40;;
16963;SDS011;8598;50.508;10.436;2023-01-26T07:44:00;13.43;;;6.50;;
16963;SDS011;8598;50.508;10.436;2023-01-26T07:46:28;18.53;;;7.40;;
16963;SDS011;8598;50.508;10.436;2023-01-26T07:48:55;13.90;;;6.57;;
16963;SDS011;8598;50.508;10.436;2023-01-26T07:51:22;10.47;;;5.90;;
16963;SDS011;8598;50.508;10.436;2023-01-26T07:53:48;12.63;;;6.40;;
16963;SDS011;8598;50.508;10.436;2023-01-26T07:56:16;11.50;;;6.30;;
16963;SDS011;8598;50.508;10.436;2023-01-26T07:58:47;10.07;;;5.80;;
16963;SDS011;8598;50.508;10.436;2023-01-26T08:01:15;9.73;;;5.80;;
16963;SDS011;8598;50.508;10.436;2023-01-26T08:03:41;11.37;;;5.70;;
16963;SDS011;8598;50.508;10.436;2023-01-26T08:06:09;11.03;;;5.63;;
16963;SDS011;8598;50.508;10.436;2023-01-26T08:08:36;11.00;;;5.67;;
16963;SDS011;8598;50.508;10.436;2023-01-26T08:11:04;10.10;;;5.37;;
16963;SDS011;8598;50.508;10.436;2023-01-26T08:13:33;10.30;;;5.77;;
16963;SDS011;8598;50.508;10.436;2023-01-26T08:16:00;10.97;;;5.83;;
16963;SDS011;8598;50.508;10.436;2023-01-26T08:18:27;14.07;;;6.60;;
16963;SDS011;8598;50.508;10.436;2023-01-26T08:20:54;11.60;;;6.43;;
16963;SDS011;8598;50.508;10.436;2023-01-26T08:23:21;14.87;;;8.30;;
16963;SDS011;8598;50.508;10.436;2023-01-26T08:25:48;11.07;;;5.97;;
16963;SDS011;8598;50.508;10.436;2023-01-26T08:28:15;11.63;;;6.20;;
16963;SDS011;8598;50.508;10.436;2023-01-26T08:30:42;14.00;;;7.30;;
16963;SDS011;8598;50.508;10.436;2023-01-26T08:33:09;9.90;;;6.13;;
16963;SDS011;8598;50.508;10.436;2023-01-26T08:35:36;16.90;;;7.97;;
16963;SDS011;8598;50.508;10.436;2023-01-26T08:38:02;10.90;;;6.23;;
16963;SDS011;8598;50.508;10.436;2023-01-26T08:40:29;11.90;;;6.20;;
16963;SDS011;8598;50.508;10.436;2023-01-26T08:42:58;12.80;;;5.50;;
16963;SDS011;8598;50.508;10.436;2023-01-26T08:45:26;11.50;;;5.37;;
16963;SDS011;8598;50.508;10.436;2023-01-26T08:47:55;14.10;;;5.63;;
16963;SDS011;8598;50.508;10.436;2023-01-26T08:50:21;11.57;;;6.83;;
16963;SDS011;8598;50.508;10.436;2023-01-26T08:52:49;9.73;;;5.23;;
16963;SDS011;8598;50.508;10.436;2023-01-26T08:55:15;11.50;;;6.43;;
16963;SDS011;8598;50.508;10.436;2023-01-26T08:57:42;10.60;;;5.47;;
16963;SDS011;8598;50.508;10.436;2023-01-26T09:00:09;11.47;;;5.97;;
16963;SDS011;8598;50.508;10.436;2023-01-26T09:02:36;10.30;;;5.40;;
16963;SDS011;8598;50.508;10.436;2023-01-26T09:05:05;9.33;;;5.93;;
16963;SDS011;8598;50.508;10.436;2023-01-26T09:07:33;11.20;;;6.53;;
16963;SDS011;8598;50.508;10.436;2023-01-26T09:09:59;11.53;;;7.00;;
16963;SDS011;8598;50.508;10.436;2023-01-26T09:12:26;13.60;;;6.53;;
16963;SDS011;8598;50.508;10.436;2023-01-26T09:14:52;7.07;;;5.00;;
16963;SDS011;8598;50.508;10.436;2023-01-26T09:17:19;9.47;;;5.37;;
16963;SDS011;8598;50.508;10.436;2023-01-26T09:19:45;6.77;;;4.40;;
16963;SDS011;8598;50.508;10.436;2023-01-26T09:22:13;6.90;;;4.70;;
16963;SDS011;8598;50.508;10.436;2023-01-26T09:24:40;7.57;;;4.63;;
16963;SDS011;8598;50.508;10.436;2023-01-26T09:27:07;7.70;;;5.13;;
16963;SDS011;8598;50.508;10.436;2023-01-26T09:29:34;10.87;;;5.80;;
16963;SDS011;8598;50.508;10.436;2023-01-26T09:32:00;14.90;;;7.93;;
16963;SDS011;8598;50.508;10.436;2023-01-26T09:34:27;6.33;;;4.43;;
16963;SDS011;8598;50.508;10.436;2023-01-26T09:36:54;15.73;;;7.60;;
16963;SDS011;8598;50.508;10.436;2023-01-26T09:39:22;8.57;;;5.10;;
16963;SDS011;8598;50.508;10.436;2023-01-26T09:41:50;13.67;;;7.20;;
16963;SDS011;8598;50.508;10.436;2023-01-26T09:44:28;9.37;;;4.17;;
16963;SDS011;8598;50.508;10.436;2023-01-26T09:47:03;6.97;;;4.53;;
16963;SDS011;8598;50.508;10.436;2023-01-26T09:49:41;10.03;;;5.70;;
16963;SDS011;8598;50.508;10.436;2023-01-26T09:52:14;12.93;;;5.17;;
16963;SDS011;8598;50.508;10.436;2023-01-26T09:54:47;8.20;;;5.23;;
16963;SDS011;8598;50.508;10.436;2023-01-26T09:57:17;7.90;;;4.90;;
16963;SDS011;8598;50.508;10.436;2023-01-26T09:59:49;7.77;;;4.40;;
16963;SDS011;8598;50.508;10.436;2023-01-26T10:02:22;7.43;;;4.53;;
16963;SDS011;8598;50.508;10.436;2023-01-26T10:04:59;7.87;;;5.43;;
16963;SDS011;8598;50.508;10.436;2023-01-26T10:07:29;8.97;;;4.73;;
16963;SDS011;8598;50.508;10.436;2023-01-26T10:09:57;8.90;;;5.30;;
16963;SDS011;8598;50.508;10.436;2023-01-26T10:12:25;8.27;;;5.50;;
16963;SDS011;8598;50.508;10.436;2023-01-26T10:14:56;9.10;;;5.83;;
16963;SDS011;8598;50.508;10.436;2023-01-26T10:17:27;8.17;;;5.63;;
16963;SDS011;8598;50.508;10.436;2023-01-26T10:19:59;9.17;;;5.63;;
16963;SDS011;8598;50.508;10.436;2023-01-26T10:22:30;8.43;;;5.67;;
16963;SDS011;8598;50.508;10.436;2023-01-26T10:25:11;8.30;;;5.60;;
16963;SDS011;8598;50.508;10.436;2023-01-26T10:27:40;7.60;;;5.23;;
16963;SDS011;8598;50.508;10.436;2023-01-26T10:30:10;7.63;;;5.27;;
16963;SDS011;8598;50.508;10.436;2023-01-26T10:32:39;9.20;;;5.03;;
16963;SDS011;8598;50.508;10.436;2023-01-26T10:35:11;8.40;;;5.53;;
16963;SDS011;8598;50.508;10.436;2023-01-26T10:37:41;7.63;;;5.53;;
16963;SDS011;8598;50.508;10.436;2023-01-26T10:40:08;12.13;;;6.60;;
16963;SDS011;8598;50.508;10.436;2023-01-26T10:42:37;11.00;;;6.47;;
16963;SDS011;8598;50.508;10.436;2023-01-26T10:45:06;11.93;;;6.30;;
16963;SDS011;8598;50.508;10.436;2023-01-26T10:48:00;11.33;;;6.77;;
16963;SDS011;8598;50.508;10.436;2023-01-26T10:50:28;10.43;;;7.33;;
16963;SDS011;8598;50.508;10.436;2023-01-26T10:52:56;11.27;;;6.53;;
16963;SDS011;8598;50.508;10.436;2023-01-26T10:55:25;8.37;;;5.43;;
16963;SDS011;8598;50.508;10.436;2023-01-26T10:57:53;7.60;;;4.67;;
16963;SDS011;8598;50.508;10.436;2023-01-26T11:00:23;12.60;;;6.03;;
16963;SDS011;8598;50.508;10.436;2023-01-26T11:02:53;9.20;;;5.40;;
16963;SDS011;8598;50.508;10.436;2023-01-26T11:05:24;7.47;;;4.67;;
16963;SDS011;8598;50.508;10.436;2023-01-26T11:07:52;7.30;;;4.60;;
16963;SDS011;8598;50.508;10.436;2023-01-26T11:10:27;7.83;;;4.83;;
16963;SDS011;8598;50.508;10.436;2023-01-26T11:13:05;7.57;;;4.63;;
16963;SDS011;8598;50.508;10.436;2023-01-26T11:15:35;8.70;;;5.27;;
16963;SDS011;8598;50.508;10.436;2023-01-26T11:18:04;11.20;;;6.83;;
16963;SDS011;8598;50.508;10.436;2023-01-26T11:20:49;10.33;;;6.63;;
16963;SDS011;8598;50.508;10.436;2023-01-26T11:23:23;8.50;;;5.73;;
16963;SDS011;8598;50.508;10.436;2023-01-26T11:26:16;7.70;;;4.93;;
16963;SDS011;8598;50.508;10.436;2023-01-26T11:28:54;8.57;;;5.67;;
16963;SDS011;8598;50.508;10.436;2023-01-26T11:31:33;10.13;;;5.57;;
16963;SDS011;8598;50.508;10.436;2023-01-26T11:34:13;6.97;;;4.70;;
16963;SDS011;8598;50.508;10.436;2023-01-26T11:36:51;6.80;;;5.23;;
16963;SDS011;8598;50.508;10.436;2023-01-26T11:39:25;6.97;;;5.00;;
16963;SDS011;8598;50.508;10.436;2023-01-26T11:42:06;9.37;;;5.63;;
16963;SDS011;8598;50.508;10.436;2023-01-26T11:44:48;11.33;;;6.20;;
16963;SDS011;8598;50.508;10.436;2023-01-26T11:47:31;8.63;;;5.80;;
16963;SDS011;8598;50.508;10.436;2023-01-26T11:50:12;9.13;;;6.00;;
16963;SDS011;8598;50.508;10.436;2023-01-26T11:52:56;9.70;;;6.53;;
16963;SDS011;8598;50.508;10.436;2023-01-26T11:55:47;10.50;;;6.43;;
16963;SDS011;8598;50.508;10.436;2023-01-26T11:58:33;12.37;;;8.00;;
16963;SDS011;8598;50.508;10.436;2023-01-26T12:01:05;9.43;;;5.83;;
16963;SDS011;8598;50.508;10.436;2023-01-26T12:03:38;11.37;;;6.13;;
16963;SDS011;8598;50.508;10.436;2023-01-26T12:06:13;12.00;;;6.63;;
16963;SDS011;8598;50.508;10.436;2023-01-26T12:08:42;11.97;;;6.67;;
16963;SDS011;8598;50.508;10.436;2023-01-26T12:11:14;9.23;;;6.77;;
16963;SDS011;8598;50.508;10.436;2023-01-26T12:13:53;11.37;;;7.10;;
16963;SDS011;8598;50.508;10.436;2023-01-26T12:16:30;10.73;;;6.87;;
16963;SDS011;8598;50.508;10.436;2023-01-26T12:19:09;9.67;;;6.87;;
16963;SDS011;8598;50.508;10.436;2023-01-26T12:21:43;10.83;;;6.20;;
16963;SDS011;8598;50.508;10.436;2023-01-26T12:24:12;11.93;;;6.23;;
16963;SDS011;8598;50.508;10.436;2023-01-26T12:26:46;8.40;;;6.27;;
16963;SDS011;8598;50.508;10.436;2023-01-26T12:29:16;8.10;;;5.93;;
16963;SDS011;8598;50.508;10.436;2023-01-26T12:31:47;7.40;;;5.43;;
16963;SDS011;8598;50.508;10.436;2023-01-26T12:34:18;14.10;;;6.73;;
16963;SDS011;8598;50.508;10.436;2023-01-26T12:36:52;11.60;;;6.47;;
16963;SDS011;8598;50.508;10.436;2023-01-26T12:39:30;11.47;;;6.90;;
16963;SDS011;8598;50.508;10.436;2023-01-26T12:42:08;13.50;;;7.97;;
16963;SDS011;8598;50.508;10.436;2023-01-26T12:44:46;11.00;;;7.27;;
16963;SDS011;8598;50.508;10.436;2023-01-26T12:47:17;14.93;;;7.90;;
16963;SDS011;8598;50.508;10.436;2023-01-26T12:49:50;12.87;;;7.30;;
16963;SDS011;8598;50.508;10.436;2023-01-26T12:52:24;14.50;;;8.30;;
16963;SDS011;8598;50.508;10.436;2023-01-26T12:54:57;16.27;;;9.07;;
16963;SDS011;8598;50.508;10.436;2023-01-26T12:57:30;13.47;;;7.60;;
16963;SDS011;8598;50.508;10.436;2023-01-26T13:00:04;12.47;;;6.80;;
16963;SDS011;8598;50.508;10.436;2023-01-26T13:02:33;10.37;;;5.40;;
16963;SDS011;8598;50.508;10.436;2023-01-26T13:05:02;10.47;;;6.50;;
16963;SDS011;8598;50.508;10.436;2023-01-26T13:07:32;11.10;;;6.43;;
16963;SDS011;8598;50.508;10.436;2023-01-26T13:10:21;13.30;;;7.17;;
16963;SDS011;8598;50.508;10.436;2023-01-26T13:12:56;12.53;;;7.03;;
16963;SDS011;8598;50.508;10.436;2023-01-26T13:15:26;12.07;;;7.33;;
16963;SDS011;8598;50.508;10.436;2023-01-26T13:17:54;13.70;;;7.47;;
16963;SDS011;8598;50.508;10.436;2023-01-26T13:26:16;9.57;;;6.10;;
16963;SDS011;8598;50.508;10.436;2023-01-26T13:28:45;12.30;;;7.43;;
16963;SDS011;8598;50.508;10.436;2023-01-26T13:31:27;12.73;;;6.93;;
16963;SDS011;8598;50.508;10.436;2023-01-26T13:33:55;14.13;;;8.53;;
16963;SDS011;8598;50.508;10.436;2023-01-26T13:36:25;16.63;;;7.07;;
16963;SDS011;8598;50.508;10.436;2023-01-26T13:38:58;15.83;;;7.43;;
16963;SDS011;8598;50.508;10.436;2023-01-26T13:41:28;18.73;;;8.53;;
16963;SDS011;8598;50.508;10.436;2023-01-26T13:43:56;13.20;;;7.57;;
16963;SDS011;8598;50.508;10.436;2023-01-26T13:46:33;15.87;;;8.20;;
16963;SDS011;8598;50.508;10.436;2023-01-26T13:49:04;15.50;;;8.67;;
16963;SDS011;8598;50.508;10.436;2023-01-26T13:51:47;14.67;;;8.30;;
16963;SDS011;8598;50.508;10.436;2023-01-26T13:54:14;16.27;;;9.17;;
16963;SDS011;8598;50.508;10.436;2023-01-26T13:56:42;20.67;;;9.70;;
16963;SDS011;8598;50.508;10.436;2023-01-26T13:59:24;14.77;;;7.90;;
16963;SDS011;8598;50.508;10.436;2023-01-26T14:01:52;15.87;;;8.03;;
16963;SDS011;8598;50.508;10.436;2023-01-26T14:04:21;14.73;;;7.20;;
16963;SDS011;8598;50.508;10.436;2023-01-26T14:06:50;14.27;;;8.73;;
16963;SDS011;8598;50.508;10.436;2023-01-26T14:09:20;16.97;;;8.60;;
16963;SDS011;8598;50.508;10.436;2023-01-26T14:11:53;18.17;;;8.43;;
16963;SDS011;8598;50.508;10.436;2023-01-26T14:14:25;15.23;;;8.30;;
16963;SDS011;8598;50.508;10.436;2023-01-26T14:16:57;19.80;;;10.13;;
16963;SDS011;8598;50.508;10.436;2023-01-26T14:19:24;16.83;;;8.97;;
16963;SDS011;8598;50.508;10.436;2023-01-26T14:21:52;18.03;;;9.47;;
16963;SDS011;8598;50.508;10.436;2023-01-26T14:24:24;16.17;;;9.20;;
16963;SDS011;8598;50.508;10.436;2023-01-26T14:26:52;16.57;;;9.33;;
16963;SDS011;8598;50.508;10.436;2023-01-26T14:29:20;18.77;;;9.10;;
16963;SDS011;8598;50.508;10.436;2023-01-26T14:31:50;19.20;;;10.47;;
16963;SDS011;8598;50.508;10.436;2023-01-26T14:34:20;23.43;;;9.97;;
16963;SDS011;8598;50.508;10.436;2023-01-26T14:36:48;16.90;;;8.57;;
16963;SDS011;8598;50.508;10.436;2023-01-26T14:39:29;16.37;;;7.80;;
16963;SDS011;8598;50.508;10.436;2023-01-26T14:41:56;18.80;;;9.53;;
16963;SDS011;8598;50.508;10.436;2023-01-26T14:44:24;17.43;;;8.80;;
16963;SDS011;8598;50.508;10.436;2023-01-26T14:46:52;30.07;;;13.77;;
16963;SDS011;8598;50.508;10.436;2023-01-26T14:49:26;19.60;;;9.10;;
16963;SDS011;8598;50.508;10.436;2023-01-26T14:52:10;29.17;;;13.80;;
16963;SDS011;8598;50.508;10.436;2023-01-26T14:54:43;28.93;;;13.03;;
16963;SDS011;8598;50.508;10.436;2023-01-26T14:57:11;22.80;;;11.07;;
16963;SDS011;8598;50.508;10.436;2023-01-26T14:59:42;25.10;;;11.53;;